createdAt,value
2022-09-02T00:02:04.071Z,102437.81
2022-09-02T00:04:33.765Z,102441.63
2022-09-02T00:07:03.275Z,102435.78
2022-09-02T00:09:33.897Z,102428.94
2022-09-02T00:12:06.740Z,102426.00
2022-09-02T00:14:38.430Z,102429.00
2022-09-02T00:17:08.130Z,102421.06
2022-09-02T00:19:38.878Z,102425.91
2022-09-02T00:22:08.530Z,102424.63
2022-09-02T00:24:38.534Z,102421.44
2022-09-02T00:27:10.790Z,102418.84
2022-09-02T00:29:40.322Z,102417.50
2022-09-02T00:32:10.190Z,102426.00
2022-09-02T00:34:39.727Z,102428.56
2022-09-02T00:37:09.352Z,102421.44
2022-09-02T00:39:38.888Z,102426.72
2022-09-02T00:42:12.043Z,102429.81
2022-09-02T00:44:41.558Z,102426.41
2022-09-02T00:47:11.261Z,102431.00
2022-09-02T00:49:42.949Z,102436.28
2022-09-02T00:52:15.390Z,102442.03
2022-09-02T00:54:50.070Z,102438.19
2022-09-02T00:57:24.807Z,102444.72
2022-09-02T01:00:00.177Z,102445.31
2022-09-02T01:02:31.751Z,102452.59
2022-09-02T01:05:04.042Z,102446.13
2022-09-02T01:07:37.405Z,102452.91
2022-09-02T01:10:09.015Z,102446.81
2022-09-02T01:12:41.336Z,102450.72
2022-09-02T01:15:12.410Z,102439.22
2022-09-02T01:17:45.540Z,102434.81
2022-09-02T01:20:19.241Z,102433.44
2022-09-02T01:22:54.569Z,102432.34
2022-09-02T01:25:27.407Z,102433.25
2022-09-02T01:28:02.315Z,102429.25
2022-09-02T01:30:33.260Z,102417.41
2022-09-02T01:33:02.806Z,102416.84
2022-09-02T01:35:32.484Z,102409.38
2022-09-02T01:38:05.183Z,102402.72
2022-09-02T01:40:36.082Z,102396.75
2022-09-02T01:43:08.549Z,102385.22
2022-09-02T01:45:38.895Z,102384.53
2022-09-02T01:48:09.381Z,102374.50
2022-09-02T01:50:43.753Z,102368.53
2022-09-02T01:53:19.299Z,102359.69
2022-09-02T01:55:49.369Z,102369.81
2022-09-02T01:58:19.399Z,102358.59
2022-09-02T02:00:49.148Z,102353.31
2022-09-02T02:03:19.621Z,102353.72
2022-09-02T02:05:49.109Z,102357.13
2022-09-02T02:08:21.226Z,102349.44
2022-09-02T02:10:50.750Z,102338.53
2022-09-02T02:13:20.352Z,102329.88
2022-09-02T02:15:49.957Z,102322.53
2022-09-02T02:18:19.482Z,102315.47
2022-09-02T02:20:50.141Z,102306.06
2022-09-02T02:23:22.546Z,102280.81
2022-09-02T02:25:52.097Z,102261.81
2022-09-02T02:28:21.573Z,102257.47
2022-09-02T02:30:51.382Z,102252.81
2022-09-02T02:33:20.830Z,102243.47
2022-09-02T02:35:55.620Z,102218.88
2022-09-02T02:38:27.861Z,102206.53
2022-09-02T02:41:00.182Z,102191.91
2022-09-02T02:43:29.721Z,102184.84
2022-09-02T02:45:59.203Z,102193.88
2022-09-02T02:48:29.110Z,102205.16
2022-09-02T02:50:58.569Z,102206.97
2022-09-02T02:53:31.373Z,102217.84
2022-09-02T02:56:00.977Z,102249.56
2022-09-02T02:58:30.864Z,102252.78
2022-09-02T03:01:01.041Z,102246.56
2022-09-02T03:03:31.992Z,102236.41
2022-09-02T03:06:01.798Z,102231.78
2022-09-02T03:08:35.290Z,102205.69
2022-09-02T03:11:07.085Z,102185.06
2022-09-02T03:13:37.944Z,102179.09
2022-09-02T03:16:07.797Z,102175.72
2022-09-02T03:18:37.969Z,102146.88
2022-09-02T03:21:10.298Z,102137.44
2022-09-02T03:23:42.434Z,102130.09
2022-09-02T03:26:12.957Z,102117.78
2022-09-02T03:28:42.805Z,102103.88
2022-09-02T03:31:17.675Z,102093.41
2022-09-02T03:33:48.185Z,102088.13
2022-09-02T03:36:25.811Z,102078.09
2022-09-02T03:38:58.610Z,102072.25
2022-09-02T03:41:28.495Z,102060.03
2022-09-02T03:43:59.220Z,102059.25
2022-09-02T03:46:28.734Z,102049.25
2022-09-02T03:48:58.245Z,102049.22
2022-09-02T03:51:29.161Z,102045.66
2022-09-02T03:54:02.769Z,102049.16
2022-09-02T03:56:32.306Z,102042.00
2022-09-02T03:59:01.986Z,102038.44
2022-09-02T04:01:34.502Z,102043.97
2022-09-02T04:04:04.995Z,102027.34
2022-09-02T04:06:34.836Z,102017.81
2022-09-02T04:09:08.318Z,102014.44
2022-09-02T04:11:37.991Z,102014.03
2022-09-02T04:14:07.481Z,102018.50
2022-09-02T04:16:37.233Z,102014.34
2022-09-02T04:19:07.066Z,102004.28
2022-09-02T04:21:38.354Z,102001.13
2022-09-02T04:24:12.032Z,102001.94
2022-09-02T04:26:45.203Z,102002.34
2022-09-02T04:29:15.126Z,102002.03
2022-09-02T04:31:46.361Z,101997.00
2022-09-02T04:34:15.934Z,101989.53
2022-09-02T04:36:45.625Z,101986.56
2022-09-02T04:39:17.700Z,101994.00
2022-09-02T04:41:47.222Z,101985.88
2022-09-02T04:44:16.781Z,101979.94
2022-09-02T04:46:46.756Z,101973.69
2022-09-02T04:49:16.266Z,101963.47
2022-09-02T04:51:46.000Z,101961.09
2022-09-02T04:54:18.088Z,101951.97
2022-09-02T04:56:47.586Z,101952.56
2022-09-02T04:59:17.032Z,101954.72
2022-09-02T05:01:46.649Z,101953.25
2022-09-02T05:04:16.689Z,101959.13
2022-09-02T05:06:47.128Z,101957.50
2022-09-02T05:09:19.221Z,101959.09
2022-09-02T05:11:49.085Z,101965.63
2022-09-02T05:14:19.401Z,101964.66
2022-09-02T05:16:49.455Z,101963.94
2022-09-02T05:19:23.395Z,101965.03
2022-09-02T05:21:56.154Z,101959.72
2022-09-02T05:24:29.682Z,101959.25
2022-09-02T05:26:59.421Z,101966.97
2022-09-02T05:29:28.922Z,101965.13
2022-09-02T05:31:58.689Z,101968.69
2022-09-02T05:34:28.250Z,101964.72
2022-09-02T05:36:57.776Z,101974.69
2022-09-02T05:39:31.216Z,101975.78
2022-09-02T05:42:00.941Z,101980.94
2022-09-02T05:44:31.424Z,101983.78
2022-09-02T05:47:00.948Z,101990.84
2022-09-02T05:49:30.615Z,101992.53
2022-09-02T05:52:02.342Z,101996.97
2022-09-02T05:54:36.365Z,102004.31
2022-09-02T05:57:09.218Z,101999.88
2022-09-02T05:59:42.529Z,102006.81
2022-09-02T06:02:13.124Z,102009.31
2022-09-02T06:04:42.946Z,102009.94
2022-09-02T06:07:13.612Z,102008.19
2022-09-02T06:09:46.731Z,102004.16
2022-09-02T06:12:17.743Z,102028.06
2022-09-02T06:14:47.596Z,102047.88
2022-09-02T06:17:17.077Z,102077.31
2022-09-02T06:19:47.329Z,102097.47
2022-09-02T06:22:17.433Z,102110.84
2022-09-02T06:24:49.519Z,102131.09
2022-09-02T06:27:19.225Z,102149.72
2022-09-02T06:29:48.782Z,102166.41
2022-09-02T06:32:18.360Z,102188.69
2022-09-02T06:34:48.108Z,102199.63
2022-09-02T06:37:17.603Z,102190.38
2022-09-02T06:39:49.791Z,102194.97
2022-09-02T06:42:19.447Z,102189.97
2022-09-02T06:44:48.936Z,102184.22
2022-09-02T06:47:18.407Z,102195.13
2022-09-02T06:49:47.918Z,102200.97
2022-09-02T06:52:17.502Z,102208.44
2022-09-02T06:54:50.765Z,102214.13
2022-09-02T06:57:20.405Z,102223.28
2022-09-02T06:59:52.025Z,102241.09
2022-09-02T07:02:28.779Z,102278.91
2022-09-02T07:05:10.528Z,102299.59
2022-09-02T07:07:41.822Z,102324.94
2022-09-02T07:10:15.301Z,102343.91
2022-09-02T07:12:44.947Z,102365.19
2022-09-02T07:15:14.834Z,102396.25
2022-09-02T07:17:44.349Z,102457.56
2022-09-02T07:20:14.505Z,102507.31
2022-09-02T07:22:44.157Z,102556.50
2022-09-02T07:25:16.411Z,102635.41
2022-09-02T07:27:46.581Z,102676.66
2022-09-02T07:30:16.661Z,102631.56
2022-09-02T07:32:46.210Z,102492.84
2022-09-02T07:35:15.744Z,102287.22
2022-09-02T07:37:45.295Z,102121.94
2022-09-02T07:40:17.550Z,101968.19
2022-09-02T07:42:50.354Z,101859.16
2022-09-02T07:45:20.108Z,101852.63
2022-09-02T07:47:49.696Z,101777.84
2022-09-02T07:50:21.122Z,101674.28
2022-09-02T07:52:51.646Z,101580.00
2022-09-02T07:55:24.616Z,101499.56
2022-09-02T07:57:55.748Z,101449.63
2022-09-02T08:00:27.705Z,101414.41
2022-09-02T08:02:57.557Z,101378.44
2022-09-02T08:05:27.230Z,101361.41
2022-09-02T08:07:56.966Z,101331.28
2022-09-02T08:10:30.108Z,101313.38
2022-09-02T08:13:01.397Z,101305.06
2022-09-02T08:15:32.407Z,101289.94
2022-09-02T08:18:02.413Z,101277.94
2022-09-02T08:20:32.129Z,101268.41
2022-09-02T08:23:11.632Z,101260.84
2022-09-02T08:25:45.329Z,101263.03
2022-09-02T08:28:15.313Z,101252.97
2022-09-02T08:30:45.099Z,101264.22
2022-09-02T08:33:14.820Z,101260.91
2022-09-02T08:35:44.333Z,101258.34
2022-09-02T08:38:13.933Z,101264.41
2022-09-02T08:40:46.961Z,101265.53
2022-09-02T08:43:29.379Z,101266.66
2022-09-02T08:46:01.527Z,101271.00
2022-09-02T08:48:37.306Z,101276.50
2022-09-02T08:51:10.436Z,101285.28
2022-09-02T08:53:43.395Z,101282.94
2022-09-02T08:56:16.358Z,101299.88
2022-09-02T08:58:47.301Z,101318.19
2022-09-02T09:01:24.652Z,101336.63
2022-09-02T09:04:13.842Z,101373.13
2022-09-02T09:06:52.699Z,101423.63
2022-09-02T09:09:27.165Z,101466.28
2022-09-02T09:12:06.123Z,101487.16
2022-09-02T09:14:38.575Z,101507.38
2022-09-02T09:17:13.141Z,101528.47
2022-09-02T09:19:51.555Z,101566.94
2022-09-02T09:22:22.877Z,101597.28
2022-09-02T09:24:53.319Z,101634.28
2022-09-02T09:27:25.785Z,101662.34
2022-09-02T09:29:56.031Z,101665.78
2022-09-02T09:32:30.402Z,101678.31
2022-09-02T09:35:04.964Z,101679.41
2022-09-02T09:37:37.523Z,101676.03
2022-09-02T09:40:30.604Z,101680.53
2022-09-02T09:43:16.182Z,101672.78
2022-09-02T09:45:47.290Z,101680.03
2022-09-02T09:48:23.059Z,101670.72
2022-09-02T09:51:12.998Z,101674.19
2022-09-02T09:53:43.253Z,101676.06
2022-09-02T09:56:27.522Z,101680.03
2022-09-02T09:58:59.621Z,101677.91
2022-09-02T10:01:31.882Z,101673.47
2022-09-02T10:04:04.914Z,101660.88
2022-09-02T10:06:41.898Z,101661.03
2022-09-02T10:09:32.372Z,101660.56
2022-09-02T10:12:05.145Z,101643.66
2022-09-02T10:14:42.446Z,101653.63
2022-09-02T10:17:29.746Z,101652.06
2022-09-02T10:20:04.918Z,101645.03
2022-09-02T10:23:00.867Z,101638.94
2022-09-02T10:25:35.950Z,101632.84
2022-09-02T10:28:14.864Z,101637.44
2022-09-02T10:30:55.075Z,101628.88
2022-09-02T10:33:40.043Z,101636.00
2022-09-02T10:36:19.810Z,101636.13
2022-09-02T10:38:52.093Z,101631.78
2022-09-02T10:44:38.272Z,101627.53
2022-09-02T10:47:15.629Z,101622.09
2022-09-02T10:49:57.665Z,101614.25
2022-09-02T10:52:38.603Z,101618.97
2022-09-02T10:55:15.331Z,101615.94
2022-09-02T10:57:49.392Z,101612.84
2022-09-02T11:00:21.208Z,101615.50
2022-09-02T11:02:56.908Z,101605.19
2022-09-02T11:05:28.786Z,101606.69
2022-09-02T11:08:03.529Z,101606.97
2022-09-02T11:10:38.043Z,101596.06
2022-09-02T11:13:11.114Z,101595.69
2022-09-02T11:15:47.327Z,101590.22
2022-09-02T11:18:26.638Z,101587.94
2022-09-02T11:21:00.149Z,101589.13
2022-09-02T11:23:37.367Z,101582.38
2022-09-02T11:26:11.134Z,101581.63
2022-09-02T11:28:45.238Z,101577.25
2022-09-02T11:31:19.579Z,101575.53
2022-09-02T11:33:56.197Z,101576.38
2022-09-02T11:36:33.213Z,101572.16
2022-09-02T11:39:07.065Z,101568.59
2022-09-02T11:42:02.136Z,101575.47
2022-09-02T11:44:52.307Z,101575.72
2022-09-02T11:47:45.501Z,101573.81
2022-09-02T11:50:27.629Z,101576.06
2022-09-02T11:53:13.225Z,101575.50
2022-09-02T11:55:44.167Z,101579.75
2022-09-02T11:58:13.665Z,101571.63
2022-09-02T12:01:08.460Z,101572.59
2022-09-02T12:04:16.238Z,101566.06
2022-09-02T12:06:40.249Z,101559.81
2022-09-02T12:09:11.986Z,101557.81
2022-09-02T12:11:55.150Z,101547.00
2022-09-02T12:15:08.253Z,101539.41
2022-09-02T12:17:48.735Z,101534.50
2022-09-02T12:20:51.152Z,101533.91
2022-09-02T12:23:57.059Z,101534.69
2022-09-02T12:26:31.685Z,101531.03
2022-09-02T12:29:14.952Z,101528.34
2022-09-02T12:31:45.758Z,101525.28
2022-09-02T12:34:46.873Z,101514.22
2022-09-02T12:37:47.246Z,101514.28
2022-09-02T12:40:30.028Z,101516.06
2022-09-02T12:43:08.170Z,101511.75
2022-09-02T12:45:44.183Z,101511.72
2022-09-02T12:48:16.386Z,101512.56
2022-09-02T12:50:57.288Z,101505.56
2022-09-02T12:53:37.351Z,101507.28
2022-09-02T12:56:09.614Z,101508.03
2022-09-02T12:58:49.301Z,101508.72
2022-09-02T13:01:22.260Z,101506.31
2022-09-02T13:04:05.042Z,101499.44
2022-09-02T13:06:46.105Z,101500.28
2022-09-02T13:09:45.454Z,101492.28
2022-09-02T13:12:51.874Z,101494.97
2022-09-02T13:15:26.474Z,101484.53
2022-09-02T13:18:33.069Z,101481.81
2022-09-02T13:21:31.013Z,101485.16
2022-09-02T13:24:16.081Z,101478.09
2022-09-02T13:27:01.969Z,101472.16
2022-09-02T13:30:08.682Z,101471.88
2022-09-02T13:32:41.270Z,101469.03
2022-09-02T13:35:23.942Z,101467.91
2022-09-02T13:37:59.731Z,101462.44
2022-09-02T13:40:33.550Z,101459.59
2022-09-02T13:43:04.554Z,101456.00
2022-09-02T13:45:36.055Z,101458.88
2022-09-02T13:48:10.985Z,101448.19
2022-09-02T13:50:45.652Z,101443.94
2022-09-02T13:53:45.390Z,101444.19
2022-09-02T13:56:11.443Z,101443.31
2022-09-02T13:58:44.125Z,101441.13
2022-09-02T14:01:26.247Z,101443.13
2022-09-02T14:04:00.265Z,101438.88
2022-09-02T14:06:33.340Z,101439.72
2022-09-02T14:09:04.581Z,101432.66
2022-09-02T14:11:41.062Z,101428.31
2022-09-02T14:14:11.537Z,101424.84
2022-09-02T14:16:41.017Z,101418.69
2022-09-02T14:19:15.238Z,101415.19
2022-09-02T14:21:50.486Z,101429.16
2022-09-02T14:24:23.730Z,101425.59
2022-09-02T14:26:55.027Z,101428.16
2022-09-02T14:29:25.129Z,101431.47
2022-09-02T14:32:14.260Z,101425.13
2022-09-02T14:34:47.402Z,101419.03
2022-09-02T14:37:23.340Z,101425.31
2022-09-02T14:39:57.602Z,101420.13
2022-09-02T14:42:29.310Z,101413.22
2022-09-02T14:45:00.157Z,101408.84
2022-09-02T14:47:30.320Z,101404.47
2022-09-02T14:50:02.478Z,101401.91
2022-09-02T14:52:33.441Z,101406.25
2022-09-02T14:55:03.098Z,101407.16
2022-09-02T14:57:33.647Z,101415.00
2022-09-02T15:00:06.953Z,101410.56
2022-09-02T15:02:38.560Z,101417.47
2022-09-02T15:05:14.656Z,101421.78
2022-09-02T15:07:45.892Z,101426.97
2022-09-02T15:10:15.370Z,101422.63
2022-09-02T15:12:49.816Z,101431.44
2022-09-02T15:15:19.750Z,101418.31
2022-09-02T15:17:49.262Z,101417.44
2022-09-02T15:20:21.760Z,101416.53
2022-09-02T15:22:52.408Z,101421.69
2022-09-02T15:25:22.378Z,101420.91
2022-09-02T15:27:51.886Z,101412.94
2022-09-02T15:30:21.795Z,101409.34
2022-09-02T15:32:51.272Z,101403.09
2022-09-02T15:35:23.409Z,101407.44
2022-09-02T15:37:53.064Z,101405.63
2022-09-02T15:40:22.846Z,101409.91
2022-09-02T15:42:52.330Z,101401.97
2022-09-02T15:45:21.823Z,101402.03
2022-09-02T15:47:51.378Z,101402.03
2022-09-02T15:50:23.551Z,101399.31
2022-09-02T15:52:53.057Z,101405.50
2022-09-02T15:55:29.061Z,101394.06
2022-09-02T15:57:59.100Z,101399.31
2022-09-02T16:00:32.150Z,101400.06
2022-09-02T16:03:02.663Z,101401.72
2022-09-02T16:05:34.770Z,101395.56
2022-09-02T16:08:04.651Z,101396.41
2022-09-02T16:10:34.229Z,101400.66
2022-09-02T16:13:04.614Z,101395.44
2022-09-02T16:15:35.146Z,101391.78
2022-09-02T16:18:04.855Z,101384.63
2022-09-02T16:20:37.026Z,101387.22
2022-09-02T16:23:06.522Z,101383.72
2022-09-02T16:25:36.021Z,101378.56
2022-09-02T16:28:06.137Z,101382.03
2022-09-02T16:30:35.760Z,101370.72
2022-09-02T16:33:05.298Z,101380.28
2022-09-02T16:35:37.342Z,101373.38
2022-09-02T16:38:07.029Z,101374.97
2022-09-02T16:40:36.633Z,101369.66
2022-09-02T16:43:06.387Z,101361.84
2022-09-02T16:45:35.924Z,101363.47
2022-09-02T16:48:06.058Z,101369.56
2022-09-02T16:50:38.161Z,101359.03
2022-09-02T16:53:07.699Z,101360.72
2022-09-02T16:55:38.341Z,101356.22
2022-09-02T16:58:10.429Z,101362.97
2022-09-02T17:00:41.867Z,101358.63
2022-09-02T17:03:12.910Z,101359.47
2022-09-02T17:05:46.317Z,101351.63
2022-09-02T17:08:15.877Z,101357.78
2022-09-02T17:10:46.154Z,101351.44
2022-09-02T17:13:16.554Z,101353.22
2022-09-02T17:15:46.186Z,101353.97
2022-09-02T17:18:15.703Z,101352.19
2022-09-02T17:20:47.891Z,101357.34
2022-09-02T17:23:17.413Z,101357.34
2022-09-02T17:25:48.369Z,101357.28
2022-09-02T17:28:18.841Z,101356.22
2022-09-02T17:30:48.565Z,101361.50
2022-09-02T17:33:18.361Z,101360.47
2022-09-02T17:35:57.828Z,101362.22
2022-09-02T17:38:27.589Z,101357.00
2022-09-02T17:41:09.670Z,101354.38
2022-09-02T17:43:39.971Z,101354.06
2022-09-02T17:46:10.041Z,101359.28
2022-09-02T17:48:59.388Z,101354.72
2022-09-02T17:51:32.307Z,101359.25
2022-09-02T17:54:01.814Z,101361.69
2022-09-02T17:57:12.831Z,101360.94
2022-09-02T17:59:57.095Z,101354.38
2022-09-02T18:02:44.815Z,101355.19
2022-09-02T18:05:20.048Z,101355.84
2022-09-02T18:08:01.299Z,101360.88
2022-09-02T18:10:36.305Z,101354.69
2022-09-02T18:13:08.310Z,101368.53
2022-09-02T18:15:46.246Z,101365.84
2022-09-02T18:18:17.398Z,101367.38
2022-09-02T18:20:47.371Z,101359.47
2022-09-02T18:23:43.188Z,101362.81
2022-09-02T18:26:18.482Z,101369.78
2022-09-02T18:28:56.574Z,101373.09
2022-09-02T18:31:38.013Z,101380.88
2022-09-02T18:34:15.341Z,101376.47
2022-09-02T18:36:50.425Z,101384.34
2022-09-02T18:39:44.580Z,101386.88
2022-09-02T18:42:20.394Z,101384.03
2022-09-02T18:44:56.382Z,101385.78
2022-09-02T18:47:27.562Z,101384.84
2022-09-02T18:49:58.440Z,101384.59
2022-09-02T18:52:29.653Z,101389.69
2022-09-02T18:55:06.662Z,101391.28
2022-09-02T18:57:40.675Z,101390.97
2022-09-02T19:00:12.742Z,101394.31
2022-09-02T19:02:46.497Z,101395.09
2022-09-02T19:05:19.027Z,101391.50
2022-09-02T19:08:01.875Z,101396.66
2022-09-02T19:10:34.578Z,101401.69
2022-09-02T19:13:04.546Z,101393.75
2022-09-02T19:15:34.079Z,101398.63
2022-09-02T19:18:06.461Z,101396.88
2022-09-02T19:20:36.578Z,101408.19
2022-09-02T19:23:08.890Z,101401.94
2022-09-02T19:25:41.030Z,101398.47
2022-09-02T19:28:12.710Z,101402.56
2022-09-02T19:30:42.385Z,101403.38
2022-09-02T19:33:13.773Z,101407.63
2022-09-02T19:35:47.651Z,101397.16
2022-09-02T19:38:18.886Z,101399.22
2022-09-02T19:40:51.449Z,101407.41
2022-09-02T19:43:21.166Z,101401.06
2022-09-02T19:45:51.524Z,101409.06
2022-09-02T19:48:21.773Z,101412.75
2022-09-02T19:50:51.607Z,101409.84
2022-09-02T19:53:25.721Z,101408.75
2022-09-02T19:55:57.798Z,101412.13
2022-09-02T19:58:27.313Z,101414.56
2022-09-02T20:00:57.311Z,101416.44
2022-09-02T20:03:28.130Z,101421.22
2022-09-02T20:05:57.661Z,101427.94
2022-09-02T20:08:30.966Z,101429.59
2022-09-02T20:11:05.201Z,101426.03
2022-09-02T20:13:41.036Z,101429.38
2022-09-02T20:16:20.338Z,101418.94
2022-09-02T20:18:51.121Z,101416.28
2022-09-02T20:21:22.837Z,101421.50
2022-09-02T20:23:53.903Z,101432.53
2022-09-02T20:26:37.472Z,101425.63
2022-09-02T20:29:17.970Z,101423.94
2022-09-02T20:31:56.202Z,101429.69
2022-09-02T20:34:44.773Z,101418.59
2022-09-02T20:37:24.985Z,101424.81
2022-09-02T20:40:07.281Z,101425.06
2022-09-02T20:42:54.323Z,101425.97
2022-09-02T20:45:27.039Z,101430.28
2022-09-02T20:48:05.162Z,101431.19
2022-09-02T20:50:42.636Z,101431.34
2022-09-02T20:53:21.991Z,101426.94
2022-09-02T20:55:57.072Z,101424.72
2022-09-02T20:58:37.024Z,101426.41
2022-09-02T21:01:09.253Z,101430.66
2022-09-02T21:03:52.230Z,101432.28
2022-09-02T21:06:24.085Z,101424.47
2022-09-02T21:09:01.422Z,101421.63
2022-09-02T21:11:38.841Z,101431.06
2022-09-02T21:14:13.956Z,101428.41
2022-09-02T21:16:47.306Z,101436.84
2022-09-02T21:19:22.227Z,101434.16
2022-09-02T21:21:55.751Z,101427.16
2022-09-02T21:24:28.482Z,101432.38
2022-09-02T21:27:02.361Z,101432.47
2022-09-02T21:29:40.171Z,101431.56
2022-09-02T21:32:13.521Z,101435.03
2022-09-02T21:34:48.209Z,101434.84
2022-09-02T21:37:20.140Z,101435.63
2022-09-02T21:39:54.024Z,101437.09
2022-09-02T21:42:30.022Z,101432.91
2022-09-02T21:45:08.587Z,101441.50
2022-09-02T21:47:41.618Z,101442.34
2022-09-02T21:50:16.554Z,101436.19
2022-09-02T21:53:03.077Z,101442.22
2022-09-02T21:55:42.078Z,101438.78
2022-09-02T21:58:21.278Z,101439.50
2022-09-02T22:00:57.916Z,101449.75
2022-09-02T22:03:40.055Z,101439.44
2022-09-02T22:06:14.209Z,101441.19
2022-09-02T22:08:47.717Z,101435.97
2022-09-02T22:11:21.650Z,101435.03
2022-09-02T22:13:51.362Z,101442.03
2022-09-02T22:16:32.793Z,101442.94
2022-09-02T22:19:04.530Z,101434.41
2022-09-02T22:21:37.994Z,101433.19
2022-09-02T22:24:08.298Z,101430.41
2022-09-02T22:26:42.865Z,101436.44
2022-09-02T22:29:17.633Z,101429.34
2022-09-02T22:31:55.154Z,101426.63
2022-09-02T22:34:24.891Z,101423.97
2022-09-02T22:36:58.064Z,101427.41
2022-09-02T22:39:33.970Z,101422.09
2022-09-02T22:42:08.220Z,101421.25
2022-09-02T22:44:54.670Z,101414.66
2022-09-02T22:47:39.973Z,101415.84
2022-09-02T22:50:24.106Z,101418.63
2022-09-02T22:52:57.225Z,101418.16
2022-09-02T22:55:46.638Z,101418.13
2022-09-02T22:58:25.662Z,101423.63
2022-09-02T23:01:03.774Z,101428.50
2022-09-02T23:03:41.707Z,101426.78
2022-09-02T23:06:17.419Z,101427.16
2022-09-02T23:08:48.206Z,101424.97
2022-09-02T23:11:28.102Z,101426.28
2022-09-02T23:14:10.559Z,101426.41
2022-09-02T23:16:53.425Z,101417.81
2022-09-02T23:19:39.364Z,101417.56
2022-09-02T23:22:14.535Z,101418.25
2022-09-02T23:24:49.505Z,101410.13
2022-09-02T23:27:27.003Z,101404.88
2022-09-02T23:29:57.994Z,101395.31
2022-09-02T23:32:43.426Z,101391.66
2022-09-02T23:35:21.551Z,101389.13
2022-09-02T23:38:05.562Z,101379.22
2022-09-02T23:40:41.014Z,101377.78
2022-09-02T23:43:12.194Z,101372.31
2022-09-02T23:45:41.726Z,101365.44
2022-09-02T23:48:24.372Z,101360.03
2022-09-02T23:51:06.422Z,101353.84
2022-09-02T23:53:40.415Z,101343.22
2022-09-02T23:56:20.291Z,101329.63
2022-09-02T23:59:00.670Z,101333.84
